createdAt,value
2024-05-09T00:00:29.926Z,65.92
2024-05-09T00:03:32.536Z,65.83
2024-05-09T00:06:30.027Z,65.80
2024-05-09T00:09:27.483Z,65.71
2024-05-09T00:12:24.753Z,65.72
2024-05-09T00:15:22.447Z,65.71
2024-05-09T00:18:19.944Z,65.70
2024-05-09T00:21:17.492Z,65.68
2024-05-09T00:24:14.712Z,65.62
2024-05-09T00:27:13.439Z,65.57
2024-05-09T00:30:17.451Z,65.53
2024-05-09T00:33:18.985Z,65.47
2024-05-09T00:36:16.710Z,65.39
2024-05-09T00:39:13.875Z,65.35
2024-05-09T00:42:11.332Z,65.31
2024-05-09T00:45:08.510Z,65.28
2024-05-09T00:48:08.026Z,65.21
2024-05-09T00:51:06.787Z,65.20
2024-05-09T00:54:05.543Z,65.18
2024-05-09T00:57:02.917Z,65.13
2024-05-09T01:00:00.123Z,65.01
2024-05-09T01:02:57.660Z,64.91
2024-05-09T01:05:55.162Z,64.79
2024-05-09T01:08:52.666Z,64.78
2024-05-09T01:11:50.180Z,64.67
2024-05-09T01:14:47.559Z,64.64
2024-05-09T01:17:46.328Z,64.57
2024-05-09T01:20:45.224Z,64.48
2024-05-09T01:23:43.052Z,64.32
2024-05-09T01:26:40.303Z,64.15
2024-05-09T01:29:37.722Z,64.06
2024-05-09T01:32:35.467Z,64.02
2024-05-09T01:35:32.777Z,64.00
2024-05-09T01:38:30.495Z,63.96
2024-05-09T01:41:27.951Z,63.89
2024-05-09T01:44:25.955Z,63.82
2024-05-09T01:47:23.563Z,63.84
2024-05-09T01:50:33.043Z,63.83
2024-05-09T01:53:34.788Z,63.80
2024-05-09T01:56:32.378Z,63.80
2024-05-09T01:59:29.578Z,63.77
2024-05-09T02:02:27.145Z,63.72
2024-05-09T02:05:24.865Z,63.61
2024-05-09T02:08:22.419Z,63.59
2024-05-09T02:11:20.097Z,63.58
2024-05-09T02:14:17.326Z,63.57
2024-05-09T02:17:14.903Z,63.58
2024-05-09T02:20:18.840Z,63.57
2024-05-09T02:23:24.706Z,63.61
2024-05-09T02:26:22.422Z,63.63
2024-05-09T02:29:19.832Z,63.57
2024-05-09T02:32:17.471Z,63.56
2024-05-09T02:35:14.730Z,63.47
2024-05-09T02:38:12.514Z,63.41
2024-05-09T02:41:10.326Z,63.30
2024-05-09T02:44:07.604Z,63.24
2024-05-09T02:47:05.117Z,63.17
2024-05-09T02:50:02.487Z,63.08
2024-05-09T02:52:59.972Z,63.01
2024-05-09T02:55:57.202Z,62.99
2024-05-09T02:58:54.748Z,62.88
2024-05-09T03:01:52.441Z,62.86
2024-05-09T03:04:49.755Z,62.84
2024-05-09T03:07:47.380Z,62.81
2024-05-09T03:10:44.574Z,62.80
2024-05-09T03:13:41.969Z,62.79
2024-05-09T03:16:39.146Z,62.80
2024-05-09T03:19:36.676Z,62.83
2024-05-09T03:22:34.099Z,62.81
2024-05-09T03:25:31.352Z,62.88
2024-05-09T03:28:28.732Z,62.87
2024-05-09T03:31:25.959Z,62.98
2024-05-09T03:34:23.482Z,63.10
2024-05-09T03:37:20.691Z,63.20
2024-05-09T03:40:23.488Z,63.27
2024-05-09T03:43:23.614Z,63.35
2024-05-09T03:46:20.826Z,63.40
2024-05-09T03:49:19.043Z,63.40
2024-05-09T03:52:16.341Z,63.42
2024-05-09T03:55:13.774Z,63.46
2024-05-09T03:58:13.171Z,63.45
2024-05-09T04:01:10.438Z,63.41
2024-05-09T04:04:09.078Z,63.42
2024-05-09T04:07:06.573Z,63.49
2024-05-09T04:10:05.243Z,63.48
2024-05-09T04:13:03.037Z,63.45
2024-05-09T04:16:00.865Z,63.40
2024-05-09T04:18:58.399Z,63.38
2024-05-09T04:21:55.666Z,63.36
2024-05-09T04:24:53.549Z,63.36
2024-05-09T04:27:55.472Z,63.35
2024-05-09T04:30:52.850Z,63.30
2024-05-09T04:33:50.168Z,63.26
2024-05-09T04:36:47.827Z,63.12
2024-05-09T04:39:45.191Z,62.99
2024-05-09T04:42:42.377Z,62.83
2024-05-09T04:45:39.726Z,62.71
2024-05-09T04:48:37.017Z,62.61
2024-05-09T04:51:34.589Z,62.49
2024-05-09T04:54:36.258Z,62.25
2024-05-09T04:57:34.095Z,62.05
2024-05-09T05:00:36.288Z,61.92
2024-05-09T05:03:35.610Z,61.80
2024-05-09T05:06:33.371Z,61.70
2024-05-09T05:09:30.545Z,61.65
2024-05-09T05:12:46.095Z,61.67
2024-05-09T05:15:43.422Z,61.55
2024-05-09T05:18:40.672Z,61.50
2024-05-09T05:21:38.122Z,61.38
2024-05-09T05:24:35.288Z,61.08
2024-05-09T05:27:32.643Z,60.62
2024-05-09T05:30:34.474Z,60.43
2024-05-09T05:33:32.825Z,60.36
2024-05-09T05:36:30.390Z,60.21
2024-05-09T05:39:27.594Z,60.08
2024-05-09T05:42:25.006Z,59.83
2024-05-09T05:45:22.203Z,59.58
2024-05-09T05:48:19.897Z,59.44
2024-05-09T05:51:17.718Z,59.32
2024-05-09T05:54:15.085Z,59.13
2024-05-09T05:57:13.840Z,58.85
2024-05-09T06:00:17.981Z,58.62
2024-05-09T06:03:19.148Z,58.44
2024-05-09T06:06:16.346Z,58.26
2024-05-09T06:09:13.814Z,58.03
2024-05-09T06:12:11.406Z,57.87
2024-05-09T06:15:08.718Z,57.57
2024-05-09T06:18:06.352Z,56.99
2024-05-09T06:21:03.844Z,56.44
2024-05-09T06:24:03.786Z,56.21
2024-05-09T06:27:04.193Z,55.72
2024-05-09T06:30:01.379Z,55.46
2024-05-09T06:32:59.042Z,54.89
2024-05-09T06:35:59.286Z,54.43
2024-05-09T06:38:56.810Z,54.13
2024-05-09T06:41:54.010Z,53.59
2024-05-09T06:44:51.525Z,53.27
2024-05-09T06:47:49.020Z,52.88
2024-05-09T06:50:46.461Z,52.20
2024-05-09T06:53:43.974Z,51.75
2024-05-09T06:56:41.214Z,51.58
2024-05-09T06:59:38.767Z,51.43
2024-05-09T07:02:36.255Z,51.17
2024-05-09T07:05:34.044Z,50.78
2024-05-09T07:08:31.728Z,50.34
2024-05-09T07:11:31.130Z,50.29
2024-05-09T07:14:29.142Z,50.15
2024-05-09T07:17:26.553Z,49.77
2024-05-09T07:20:32.285Z,49.88
2024-05-09T07:23:32.414Z,49.81
2024-05-09T07:26:29.715Z,49.08
2024-05-09T07:29:27.353Z,48.56
2024-05-09T07:32:24.700Z,48.33
2024-05-09T07:35:22.507Z,48.06
2024-05-09T07:38:19.905Z,47.78
2024-05-09T07:41:17.651Z,47.51
2024-05-09T07:44:15.149Z,47.14
2024-05-09T07:48:27.673Z,46.53
2024-05-09T07:53:40.293Z,45.47
2024-05-09T07:56:42.059Z,44.89
2024-05-09T07:59:39.375Z,44.33
2024-05-09T08:02:36.998Z,44.06
2024-05-09T08:05:34.765Z,44.13
2024-05-09T08:08:32.089Z,43.80
2024-05-09T08:11:29.627Z,43.53
2024-05-09T08:14:26.798Z,43.28
2024-05-09T08:17:24.449Z,43.09
2024-05-09T08:20:30.270Z,42.48
2024-05-09T08:23:28.995Z,41.95
2024-05-09T08:26:26.534Z,41.79
2024-05-09T08:29:23.723Z,41.82
2024-05-09T08:32:21.296Z,41.10
2024-05-09T08:35:18.508Z,40.45
2024-05-09T08:38:15.986Z,40.02
2024-05-09T08:41:13.354Z,39.70
2024-05-09T08:44:10.599Z,39.45
2024-05-09T08:47:09.988Z,38.78
2024-05-09T08:50:10.943Z,37.54
2024-05-09T08:53:11.237Z,37.73
2024-05-09T08:56:08.652Z,37.05
2024-05-09T08:59:05.810Z,36.75
2024-05-09T09:02:03.251Z,36.70
2024-05-09T09:05:00.649Z,36.71
2024-05-09T09:07:58.337Z,36.24
2024-05-09T09:10:55.562Z,35.23
2024-05-09T09:13:53.023Z,35.04
2024-05-09T09:16:51.822Z,34.71
2024-05-09T09:19:49.090Z,34.31
2024-05-09T09:22:46.529Z,34.08
2024-05-09T09:25:43.728Z,34.04
2024-05-09T09:28:41.639Z,33.75
2024-05-09T09:31:39.127Z,33.45
2024-05-09T09:34:36.935Z,32.52
2024-05-09T09:37:36.101Z,32.52
2024-05-09T09:40:35.839Z,32.33
2024-05-09T09:43:35.973Z,31.92
2024-05-09T09:46:33.195Z,31.83
2024-05-09T09:49:31.659Z,30.80
2024-05-09T09:52:29.011Z,29.96
2024-05-09T09:55:26.469Z,29.63
2024-05-09T09:58:24.164Z,29.27
2024-05-09T10:01:21.565Z,29.17
2024-05-09T10:04:19.492Z,29.29
2024-05-09T10:07:16.835Z,28.74
2024-05-09T10:10:16.600Z,28.62
2024-05-09T10:13:18.171Z,28.27
2024-05-09T10:16:15.714Z,27.98
2024-05-09T10:19:13.310Z,27.34
2024-05-09T10:22:10.829Z,27.75
2024-05-09T10:25:08.403Z,27.59
2024-05-09T10:28:05.637Z,27.27
2024-05-09T10:31:03.251Z,27.04
2024-05-09T10:34:02.727Z,26.88
2024-05-09T10:37:01.422Z,26.92
2024-05-09T10:39:59.590Z,26.88
2024-05-09T10:42:57.162Z,26.79
2024-05-09T10:45:54.897Z,26.88
2024-05-09T10:48:52.242Z,26.89
2024-05-09T10:51:50.812Z,26.60
2024-05-09T10:54:48.236Z,26.23
2024-05-09T10:57:45.777Z,25.81
2024-05-09T11:00:43.469Z,25.42
2024-05-09T11:03:41.003Z,24.95
2024-05-09T11:06:38.735Z,25.20
2024-05-09T11:09:36.102Z,25.12
2024-05-09T11:12:33.737Z,25.04
2024-05-09T11:15:30.971Z,25.03
2024-05-09T11:18:30.800Z,24.59
2024-05-09T11:21:31.424Z,24.61
2024-05-09T11:24:28.642Z,24.98
2024-05-09T11:27:26.196Z,25.03
2024-05-09T11:30:29.794Z,24.95
2024-05-09T11:33:29.651Z,24.89
2024-05-09T11:36:27.317Z,24.58
2024-05-09T11:39:24.661Z,24.01
2024-05-09T11:42:22.595Z,24.42
2024-05-09T11:45:19.851Z,24.11
2024-05-09T11:48:17.397Z,24.43
2024-05-09T11:51:14.928Z,24.21
2024-05-09T11:54:12.111Z,24.19
2024-05-09T11:57:10.420Z,24.24
2024-05-09T12:00:09.620Z,24.13
2024-05-09T12:03:09.384Z,23.98
2024-05-09T12:06:06.853Z,23.44
2024-05-09T12:09:04.446Z,23.49
2024-05-09T12:12:01.789Z,23.42
2024-05-09T12:14:59.271Z,23.57
2024-05-09T12:17:59.015Z,23.77
2024-05-09T12:20:58.703Z,23.84
2024-05-09T12:23:56.403Z,23.55
2024-05-09T12:26:53.580Z,23.23
2024-05-09T12:29:51.040Z,23.29
2024-05-09T12:32:48.579Z,23.51
2024-05-09T12:35:48.168Z,23.70
2024-05-09T12:38:47.294Z,23.25
2024-05-09T12:41:44.806Z,23.72
2024-05-09T12:44:41.963Z,24.03
2024-05-09T12:47:39.490Z,24.02
2024-05-09T12:50:37.247Z,24.00
2024-05-09T12:53:34.498Z,23.95
2024-05-09T12:56:33.589Z,23.65
2024-05-09T12:59:30.790Z,23.64
2024-05-09T13:02:28.419Z,23.34
2024-05-09T13:05:25.907Z,23.39
2024-05-09T13:08:23.587Z,23.43
2024-05-09T13:11:20.818Z,23.36
2024-05-09T13:14:18.327Z,23.45
2024-05-09T13:17:15.887Z,23.72
2024-05-09T13:20:22.332Z,23.88
2024-05-09T13:23:23.655Z,23.85
2024-05-09T13:26:20.883Z,23.78
2024-05-09T13:29:18.442Z,24.14
2024-05-09T13:32:15.658Z,24.22
2024-05-09T13:35:13.145Z,23.98
2024-05-09T13:38:10.540Z,24.42
2024-05-09T13:41:08.362Z,24.52
2024-05-09T13:44:05.821Z,24.52
2024-05-09T13:47:03.047Z,24.51
2024-05-09T13:50:00.474Z,24.35
2024-05-09T13:52:57.649Z,24.23
2024-05-09T13:55:55.139Z,23.89
2024-05-09T13:58:52.336Z,24.13
2024-05-09T14:01:49.968Z,24.39
2024-05-09T14:04:47.415Z,24.40
2024-05-09T14:07:45.006Z,24.52
2024-05-09T14:10:44.306Z,24.48
2024-05-09T14:13:42.268Z,24.41
2024-05-09T14:16:39.681Z,24.58
2024-05-09T14:19:37.300Z,24.93
2024-05-09T14:22:35.366Z,25.04
2024-05-09T14:25:36.605Z,24.98
2024-05-09T14:28:36.209Z,24.81
2024-05-09T14:31:35.457Z,24.97
2024-05-09T14:34:33.947Z,25.00
2024-05-09T14:37:31.232Z,25.13
2024-05-09T14:40:38.941Z,24.96
2024-05-09T14:43:40.354Z,24.93
2024-05-09T14:46:37.866Z,24.76
2024-05-09T14:49:35.339Z,24.88
2024-05-09T14:52:32.690Z,24.89
2024-05-09T14:55:30.615Z,25.05
2024-05-09T14:58:28.004Z,25.12
2024-05-09T15:01:25.555Z,25.05
2024-05-09T15:04:22.860Z,24.91
2024-05-09T15:07:20.492Z,24.90
2024-05-09T15:10:26.493Z,25.02
2024-05-09T15:13:31.161Z,25.40
2024-05-09T15:16:28.650Z,25.73
2024-05-09T15:19:26.034Z,25.66
2024-05-09T15:22:23.776Z,25.59
2024-05-09T15:25:21.007Z,25.56
2024-05-09T15:28:18.812Z,25.79
2024-05-09T15:31:16.177Z,25.80
2024-05-09T15:34:13.754Z,25.90
2024-05-09T15:37:10.986Z,25.83
2024-05-09T15:40:15.376Z,26.04
2024-05-09T15:43:19.576Z,26.27
2024-05-09T15:46:16.887Z,26.23
2024-05-09T15:49:14.645Z,26.33
2024-05-09T15:52:12.184Z,26.48
2024-05-09T15:55:10.971Z,26.71
2024-05-09T15:58:08.499Z,26.47
2024-05-09T16:01:06.250Z,26.47
2024-05-09T16:04:03.964Z,26.50
2024-05-09T16:07:01.390Z,26.90
2024-05-09T16:09:59.231Z,26.68
2024-05-09T16:12:56.907Z,26.66
2024-05-09T16:15:54.708Z,26.92
2024-05-09T16:18:52.065Z,26.97
2024-05-09T16:21:49.506Z,27.01
2024-05-09T16:24:46.823Z,27.11
2024-05-09T16:27:44.319Z,27.33
2024-05-09T16:30:41.877Z,27.66
2024-05-09T16:33:40.298Z,28.02
2024-05-09T16:36:38.129Z,28.28
2024-05-09T16:39:35.316Z,28.55
2024-05-09T16:42:32.699Z,28.79
2024-05-09T16:45:30.284Z,28.69
2024-05-09T16:48:27.628Z,28.93
2024-05-09T16:51:26.014Z,29.10
2024-05-09T16:54:23.201Z,29.61
2024-05-09T16:57:20.605Z,29.86
2024-05-09T17:00:22.667Z,30.01
2024-05-09T17:03:28.962Z,30.09
2024-05-09T17:06:26.418Z,30.47
2024-05-09T17:09:23.581Z,30.53
2024-05-09T17:12:21.053Z,30.79
2024-05-09T17:15:18.270Z,30.93
2024-05-09T17:18:15.947Z,31.36
2024-05-09T17:21:13.631Z,31.74
2024-05-09T17:24:10.854Z,32.02
2024-05-09T17:27:08.251Z,32.22
2024-05-09T17:30:06.391Z,32.44
2024-05-09T17:33:05.723Z,32.77
2024-05-09T17:36:03.108Z,33.15
2024-05-09T17:39:00.520Z,33.50
2024-05-09T17:41:57.700Z,33.72
2024-05-09T17:44:55.039Z,33.87
2024-05-09T17:47:52.435Z,34.31
2024-05-09T17:50:51.617Z,34.72
2024-05-09T17:53:49.876Z,35.18
2024-05-09T17:56:47.085Z,35.65
2024-05-09T17:59:44.862Z,36.12
2024-05-09T18:02:42.744Z,36.48
2024-05-09T18:05:40.416Z,36.89
2024-05-09T18:08:37.755Z,37.10
2024-05-09T18:11:35.283Z,37.38
2024-05-09T18:14:32.658Z,37.75
2024-05-09T18:17:30.027Z,38.01
2024-05-09T18:20:37.610Z,38.28
2024-05-09T18:23:40.393Z,38.62
2024-05-09T18:26:38.016Z,38.83
2024-05-09T18:29:35.200Z,39.06
2024-05-09T18:32:32.767Z,39.35
2024-05-09T18:35:30.141Z,39.55
2024-05-09T18:38:27.661Z,39.89
2024-05-09T18:41:25.224Z,40.16
2024-05-09T18:44:22.381Z,40.38
2024-05-09T18:47:20.612Z,40.68
2024-05-09T18:50:28.241Z,40.92
2024-05-09T18:53:32.161Z,41.15
2024-05-09T18:56:29.364Z,41.34
2024-05-09T18:59:26.967Z,41.53
2024-05-09T19:02:24.385Z,41.75
2024-05-09T19:05:22.221Z,41.96
2024-05-09T19:08:19.609Z,42.10
2024-05-09T19:11:17.796Z,42.22
2024-05-09T19:14:15.164Z,42.43
2024-05-09T19:17:12.342Z,42.54
2024-05-09T19:20:20.206Z,42.61
2024-05-09T19:23:22.860Z,42.80
2024-05-09T19:26:21.114Z,42.95
2024-05-09T19:29:18.554Z,43.00
2024-05-09T19:32:15.743Z,42.94
2024-05-09T19:35:13.265Z,43.01
2024-05-09T19:38:10.442Z,43.02
2024-05-09T19:41:07.873Z,43.10
2024-05-09T19:44:05.351Z,43.09
2024-05-09T19:47:02.572Z,43.05
2024-05-09T19:50:00.230Z,43.09
2024-05-09T19:52:57.654Z,43.25
2024-05-09T19:55:55.806Z,43.25
2024-05-09T19:58:52.981Z,43.11
2024-05-09T20:01:50.649Z,43.13
2024-05-09T20:04:49.057Z,43.10
2024-05-09T20:07:46.317Z,43.13
2024-05-09T20:10:43.932Z,43.24
2024-05-09T20:13:41.236Z,43.21
2024-05-09T20:16:38.749Z,43.19
2024-05-09T20:19:36.024Z,43.11
2024-05-09T20:22:33.663Z,43.09
2024-05-09T20:25:31.127Z,43.01
2024-05-09T20:28:28.597Z,42.93
2024-05-09T20:31:26.413Z,42.91
2024-05-09T20:34:23.787Z,42.97
2024-05-09T20:37:21.590Z,42.92
2024-05-09T20:40:25.775Z,42.99
2024-05-09T20:43:28.973Z,43.08
2024-05-09T20:46:26.534Z,43.14
2024-05-09T20:49:24.442Z,43.11
2024-05-09T20:52:22.257Z,43.16
2024-05-09T20:55:20.703Z,43.19
2024-05-09T20:58:18.128Z,43.25
2024-05-09T21:01:15.456Z,43.36
2024-05-09T21:04:13.272Z,43.40
2024-05-09T21:07:11.041Z,43.52
2024-05-09T21:10:15.468Z,43.61
2024-05-09T21:13:17.084Z,43.69
2024-05-09T21:16:14.376Z,43.79
2024-05-09T21:19:12.323Z,43.95
2024-05-09T21:22:09.652Z,44.13
2024-05-09T21:25:07.037Z,44.35
2024-05-09T21:28:04.384Z,44.51
2024-05-09T21:31:01.874Z,44.66
2024-05-09T21:33:59.207Z,44.80
2024-05-09T21:36:57.308Z,44.92
2024-05-09T21:39:54.662Z,45.04
2024-05-09T21:42:52.137Z,45.10
2024-05-09T21:45:49.564Z,45.29
2024-05-09T21:48:46.872Z,45.51
2024-05-09T21:51:44.456Z,45.72
2024-05-09T21:54:41.732Z,45.94
2024-05-09T21:57:39.164Z,46.20
2024-05-09T22:00:39.242Z,46.42
2024-05-09T22:03:36.982Z,46.62
2024-05-09T22:06:34.574Z,46.83
2024-05-09T22:09:31.923Z,46.98
2024-05-09T22:12:29.305Z,47.17
2024-05-09T22:15:26.871Z,47.28
2024-05-09T22:18:24.345Z,47.45
2024-05-09T22:21:21.823Z,47.67
2024-05-09T22:24:19.237Z,47.93
2024-05-09T22:27:16.604Z,48.17
2024-05-09T22:30:21.214Z,48.47
2024-05-09T22:33:24.702Z,48.74
2024-05-09T22:36:21.887Z,49.09
2024-05-09T22:39:19.320Z,49.28
2024-05-09T22:42:16.498Z,49.59
2024-05-09T22:45:13.847Z,49.75
2024-05-09T22:48:11.134Z,49.98
2024-05-09T22:51:08.647Z,50.09
2024-05-09T22:54:06.118Z,50.26
2024-05-09T22:57:03.296Z,50.38
2024-05-09T23:00:00.663Z,50.58
2024-05-09T23:02:57.957Z,50.76
2024-05-09T23:05:55.427Z,50.90
2024-05-09T23:08:52.683Z,51.03
2024-05-09T23:11:50.200Z,51.18
2024-05-09T23:14:47.451Z,51.30
2024-05-09T23:17:45.180Z,51.47
2024-05-09T23:20:42.947Z,51.64
2024-05-09T23:23:40.158Z,51.83
2024-05-09T23:26:37.498Z,51.94
2024-05-09T23:29:34.696Z,52.05
2024-05-09T23:32:32.325Z,52.19
2024-05-09T23:35:29.545Z,52.35
2024-05-09T23:38:27.086Z,52.53
2024-05-09T23:41:24.408Z,52.67
2024-05-09T23:44:21.569Z,52.82
2024-05-09T23:47:19.104Z,52.96
2024-05-09T23:50:20.702Z,53.08
2024-05-09T23:53:23.913Z,53.21
2024-05-09T23:56:21.792Z,53.32
2024-05-09T23:59:19.336Z,53.41
